Time;durP1;ratioP1;P1;durP2;ratioP2;P2;SDS_P1;SDS_P2;PMS_P1;PMS_P2;Temp;Humidity;BMP_temperature;BMP_pressure;BME280_temperature;BME280_humidity;BME280_pressure;Samples;Min_cycle;Max_cycle;Signal;HPM_P1;HPM_P2
2023/03/22 00:04:16;;;;;;;4.60;2.60;;;14.00;98.40;;;;;;10082184;28;20034;-63
2023/03/22 00:09:07;;;;;;;3.47;2.22;;;14.00;98.40;;;;;;10099186;28;20032;-63
2023/03/22 00:13:58;;;;;;;3.05;2.03;;;14.00;98.40;;;;;;10088799;28;20045;-63
2023/03/22 00:18:49;;;;;;;5.13;2.13;;;13.90;98.40;;;;;;10082440;28;20017;-66
2023/03/22 00:23:40;;;;;;;5.72;2.08;;;13.90;98.40;;;;;;10091582;28;20029;-63
2023/03/22 00:28:30;;;;;;;4.75;1.98;;;13.80;98.40;;;;;;10100209;28;20040;-63
2023/03/22 00:33:22;;;;;;;3.95;1.73;;;13.70;98.40;;;;;;10076428;28;20510;-63
2023/03/22 00:38:12;;;;;;;3.25;2.15;;;13.60;98.50;;;;;;10101045;28;20715;-63
2023/03/22 00:43:03;;;;;;;4.25;1.90;;;13.50;98.50;;;;;;10087419;28;20021;-63
2023/03/22 00:47:54;;;;;;;6.18;2.10;;;13.50;98.60;;;;;;10101105;28;20035;-64
2023/03/22 00:52:44;;;;;;;5.00;2.35;;;13.40;98.60;;;;;;10101580;28;20053;-62
2023/03/22 00:57:36;;;;;;;5.00;2.25;;;13.30;98.60;;;;;;10081321;28;20600;-65
2023/03/22 01:02:28;;;;;;;5.13;2.05;;;13.30;98.70;;;;;;10088494;28;20027;-63
2023/03/22 01:07:20;;;;;;;3.30;1.67;;;13.20;98.70;;;;;;10098488;28;20017;-64
2023/03/22 01:12:11;;;;;;;3.70;1.88;;;13.20;98.70;;;;;;10096240;28;20037;-64
2023/03/22 01:17:02;;;;;;;6.13;1.90;;;13.20;98.80;;;;;;10078846;28;20028;-63
2023/03/22 01:21:53;;;;;;;4.53;2.15;;;13.10;98.90;;;;;;10092809;28;20400;-63
2023/03/22 01:26:44;;;;;;;2.53;2.17;;;13.10;99.00;;;;;;10077453;28;20371;-62
2023/03/22 01:31:35;;;;;;;4.60;2.40;;;13.10;99.10;;;;;;10043991;28;20087;-63
2023/03/22 01:36:25;;;;;;;2.95;1.92;;;13.00;99.10;;;;;;10074876;28;20040;-62
2023/03/22 01:41:16;;;;;;;3.35;1.98;;;12.90;99.20;;;;;;10063704;28;20033;-63
2023/03/22 01:46:07;;;;;;;3.72;2.50;;;12.80;99.40;;;;;;10078801;28;20078;-63
2023/03/22 01:51:12;;;;;;;4.18;2.03;;;12.80;99.50;;;;;;10098952;28;20048;-63
2023/03/22 01:56:03;;;;;;;3.45;2.40;;;12.80;99.50;;;;;;10086476;28;20503;-63
2023/03/22 02:00:54;;;;;;;4.32;2.78;;;12.60;99.60;;;;;;10085708;28;20369;-62
2023/03/22 02:05:46;;;;;;;3.15;2.00;;;12.60;99.70;;;;;;10086199;28;20030;-63
2023/03/22 02:10:37;;;;;;;4.82;2.47;;;12.50;99.70;;;;;;10084931;28;20111;-62
2023/03/22 02:15:34;;;;;;;5.95;2.00;;;12.50;99.90;;;;;;10084271;28;20116;-62
2023/03/22 02:20:46;;;;;;;4.25;2.35;;;12.40;99.90;;;;;;10098238;28;20025;-63
2023/03/22 02:26:22;;;;;;;2.38;1.85;;;12.30;99.90;;;;;;10081270;28;20098;-62
2023/03/22 02:31:35;;;;;;;3.90;2.33;;;12.40;99.90;;;;;;10087301;28;20148;-62
2023/03/22 02:37:03;;;;;;;2.90;2.10;;;12.30;99.90;;;;;;10071609;28;20090;-63
2023/03/22 02:42:06;;;;;;;2.40;2.00;;;12.30;99.90;;;;;;10078528;28;20026;-63
2023/03/22 02:47:06;;;;;;;6.28;2.20;;;12.30;99.90;;;;;;10097992;28;20063;-62
2023/03/22 02:52:02;;;;;;;3.83;1.98;;;12.20;99.90;;;;;;10091642;28;20052;-62
2023/03/22 02:57:13;;;;;;;4.40;2.25;;;12.20;99.90;;;;;;10088177;28;20286;-62
2023/03/22 03:02:07;;;;;;;3.35;2.20;;;12.10;99.90;;;;;;10085978;28;20021;-63
2023/03/22 03:07:08;;;;;;;5.38;3.20;;;12.00;99.90;;;;;;10081084;28;20029;-63
2023/03/22 03:11:58;;;;;;;3.40;2.00;;;11.90;99.90;;;;;;10099514;28;20047;-62
2023/03/22 03:17:17;;;;;;;3.97;2.22;;;11.80;99.90;;;;;;10089818;28;20033;-63
2023/03/22 03:22:22;;;;;;;2.83;2.15;;;11.80;99.90;;;;;;10083686;28;20055;-63
2023/03/22 03:27:27;;;;;;;4.50;3.15;;;11.70;99.90;;;;;;10103633;28;20044;-62
2023/03/22 03:32:37;;;;;;;3.38;2.30;;;11.60;99.90;;;;;;10085435;28;20049;-62
2023/03/22 03:37:40;;;;;;;2.88;2.15;;;11.40;99.90;;;;;;10085992;28;20023;-63
2023/03/22 03:42:31;;;;;;;4.63;2.15;;;11.50;99.90;;;;;;10052081;28;20026;-62
2023/03/22 03:47:23;;;;;;;3.58;2.22;;;11.50;99.90;;;;;;10057125;28;20034;-62
2023/03/22 03:52:13;;;;;;;4.18;2.38;;;11.40;99.90;;;;;;10086454;28;20049;-63
2023/03/22 03:57:04;;;;;;;2.97;1.80;;;11.30;99.90;;;;;;10076614;28;20029;-63
2023/03/22 04:01:55;;;;;;;3.50;2.88;;;11.30;99.90;;;;;;10081016;28;20029;-63
2023/03/22 04:06:45;;;;;;;3.08;2.80;;;11.30;99.90;;;;;;10091933;28;20025;-62
2023/03/22 04:11:36;;;;;;;6.30;2.40;;;11.20;99.90;;;;;;10101982;28;20039;-62
2023/03/22 04:16:26;;;;;;;4.35;2.22;;;11.20;99.90;;;;;;10087110;28;20044;-63
2023/03/22 04:21:18;;;;;;;5.25;2.30;;;11.20;99.90;;;;;;10101412;28;20025;-63
2023/03/22 04:26:09;;;;;;;3.00;2.40;;;11.20;99.90;;;;;;10101780;28;20033;-63
2023/03/22 04:31:02;;;;;;;5.43;2.53;;;11.10;99.90;;;;;;10084890;28;20100;-63
2023/03/22 04:35:55;;;;;;;4.43;2.55;;;11.10;99.90;;;;;;10061092;28;20084;-62
2023/03/22 04:40:46;;;;;;;4.43;2.50;;;11.00;99.90;;;;;;10074911;28;20102;-62
2023/03/22 04:45:37;;;;;;;5.05;2.65;;;11.10;99.90;;;;;;10098185;28;20025;-62
2023/03/22 04:50:28;;;;;;;3.80;2.10;;;11.10;99.90;;;;;;10100448;28;20044;-62
2023/03/22 04:55:19;;;;;;;4.68;3.05;;;11.00;99.90;;;;;;10090582;28;20114;-64
2023/03/22 05:00:10;;;;;;;4.00;2.88;;;10.90;99.90;;;;;;10080307;28;20055;-62
2023/03/22 05:05:01;;;;;;;3.85;2.28;;;10.90;99.90;;;;;;10087116;28;20024;-62
2023/03/22 05:09:51;;;;;;;6.30;2.65;;;11.00;99.90;;;;;;10092684;28;20066;-62
2023/03/22 05:14:42;;;;;;;3.55;2.63;;;11.00;99.90;;;;;;10081901;28;20496;-62
2023/03/22 05:19:32;;;;;;;4.95;3.20;;;11.00;99.90;;;;;;10099744;28;20028;-64
2023/03/22 05:24:23;;;;;;;3.50;2.55;;;10.90;99.90;;;;;;10091399;28;20029;-61
2023/03/22 05:29:14;;;;;;;8.18;2.58;;;10.80;99.90;;;;;;10093280;28;20017;-61
2023/03/22 05:34:04;;;;;;;5.32;2.42;;;10.80;99.90;;;;;;10073482;28;20427;-62
2023/03/22 05:38:56;;;;;;;6.97;2.95;;;10.90;99.90;;;;;;10089759;28;20510;-62
2023/03/22 05:43:46;;;;;;;3.85;2.40;;;10.90;99.90;;;;;;10085795;28;20039;-61
2023/03/22 05:48:39;;;;;;;4.97;1.88;;;10.80;99.90;;;;;;10097762;28;20021;-63
2023/03/22 05:53:30;;;;;;;6.55;2.72;;;10.80;99.90;;;;;;10087185;28;20183;-62
2023/03/22 05:58:21;;;;;;;4.93;2.65;;;10.80;99.90;;;;;;10084221;28;20095;-62
2023/03/22 06:03:11;;;;;;;6.03;2.72;;;10.70;99.90;;;;;;10088822;28;20036;-62
2023/03/22 06:08:02;;;;;;;7.57;2.45;;;10.70;99.90;;;;;;10061084;28;20426;-61
2023/03/22 06:12:54;;;;;;;5.20;2.58;;;10.80;99.90;;;;;;10074794;28;20037;-61
2023/03/22 06:17:45;;;;;;;4.10;2.22;;;11.00;99.90;;;;;;10071650;28;20143;-63
2023/03/22 06:22:36;;;;;;;4.93;2.55;;;11.00;99.90;;;;;;10092292;28;20124;-62
2023/03/22 06:27:27;;;;;;;3.60;2.75;;;11.00;99.90;;;;;;10097778;28;20040;-61
2023/03/22 06:32:17;;;;;;;5.35;3.03;;;11.00;99.90;;;;;;10079807;28;20064;-62
2023/03/22 06:37:08;;;;;;;6.43;3.38;;;11.10;99.90;;;;;;10081470;28;20029;-62
2023/03/22 06:41:59;;;;;;;3.92;2.25;;;11.20;99.90;;;;;;10092774;28;20026;-61
2023/03/22 06:46:49;;;;;;;5.38;2.33;;;11.20;99.90;;;;;;10105703;28;20295;-62
2023/03/22 06:51:40;;;;;;;3.25;2.22;;;11.30;99.90;;;;;;10079942;28;20052;-61
2023/03/22 06:56:31;;;;;;;3.67;2.03;;;11.30;99.90;;;;;;10094007;28;20415;-60
2023/03/22 07:01:21;;;;;;;3.78;2.20;;;11.40;99.90;;;;;;10088860;28;20082;-61
2023/03/22 07:06:12;;;;;;;3.22;2.00;;;11.50;99.90;;;;;;10096949;28;20028;-63
2023/03/22 07:11:04;;;;;;;4.90;2.53;;;11.50;99.90;;;;;;10087198;28;20029;-62
2023/03/22 07:15:59;;;;;;;4.20;2.00;;;11.60;99.90;;;;;;10083515;28;20028;-61
2023/03/22 07:20:50;;;;;;;3.47;1.90;;;11.70;99.90;;;;;;10089494;28;20051;-62
2023/03/22 07:25:41;;;;;;;4.93;2.63;;;11.90;99.90;;;;;;10099472;28;20033;-61
2023/03/22 07:30:36;;;;;;;2.75;2.30;;;12.00;99.90;;;;;;10098323;28;20021;-61
2023/03/22 07:35:26;;;;;;;4.68;2.10;;;12.20;99.90;;;;;;10082183;28;20033;-61
2023/03/22 07:40:17;;;;;;;3.97;3.20;;;12.20;99.90;;;;;;10079489;28;20547;-63
2023/03/22 07:45:08;;;;;;;3.13;2.25;;;12.30;99.90;;;;;;10068323;28;20518;-62
2023/03/22 07:49:59;;;;;;;3.05;2.10;;;12.40;99.90;;;;;;10065779;28;20041;-62
2023/03/22 07:54:49;;;;;;;4.60;2.20;;;12.50;99.90;;;;;;10062913;28;20045;-61
2023/03/22 07:59:40;;;;;;;3.78;2.60;;;12.80;99.90;;;;;;10065190;28;20051;-61
2023/03/22 08:04:31;;;;;;;4.15;2.33;;;12.90;99.90;;;;;;10062259;28;20411;-63
2023/03/22 08:09:21;;;;;;;4.70;2.20;;;13.20;99.90;;;;;;10092965;28;20021;-60
2023/03/22 08:14:12;;;;;;;7.03;2.90;;;13.40;99.90;;;;;;10088549;28;20515;-60
2023/03/22 08:19:03;;;;;;;4.68;2.35;;;13.60;99.90;;;;;;10083528;28;20062;-61
2023/03/22 08:23:54;;;;;;;3.10;1.92;;;13.60;99.90;;;;;;10061111;28;20488;-61
2023/03/22 08:28:45;;;;;;;5.03;2.47;;;13.80;99.90;;;;;;10079133;28;20116;-61
2023/03/22 08:33:35;;;;;;;3.75;2.38;;;13.80;99.90;;;;;;10072057;28;20041;-63
2023/03/22 08:38:26;;;;;;;3.55;1.67;;;13.90;99.90;;;;;;10060997;28;20483;-63
2023/03/22 08:43:16;;;;;;;3.72;1.92;;;14.00;99.90;;;;;;10063307;28;20458;-61
2023/03/22 08:48:07;;;;;;;3.20;1.70;;;14.10;99.90;;;;;;10060325;28;20211;-61
2023/03/22 08:52:59;;;;;;;6.88;1.90;;;14.30;99.90;;;;;;10061305;28;20057;-62
2023/03/22 08:57:50;;;;;;;3.33;1.63;;;14.50;99.90;;;;;;10060856;28;20052;-62
2023/03/22 09:02:41;;;;;;;4.57;1.80;;;14.60;99.90;;;;;;10061435;28;20519;-62
2023/03/22 09:07:31;;;;;;;2.08;1.45;;;14.70;99.90;;;;;;10059938;28;20093;-61
2023/03/22 09:12:22;;;;;;;4.00;1.90;;;14.80;99.90;;;;;;10059377;28;20037;-61
2023/03/22 09:17:13;;;;;;;3.88;1.50;;;14.90;99.90;;;;;;10060185;28;20526;-63
2023/03/22 09:22:03;;;;;;;3.83;1.60;;;15.00;99.90;;;;;;10058632;28;20080;-61
2023/03/22 09:26:54;;;;;;;2.13;1.45;;;15.20;99.90;;;;;;10056582;28;20022;-62
2023/03/22 09:31:47;;;;;;;3.08;1.90;;;15.50;99.90;;;;;;10052075;28;20029;-64
2023/03/22 09:36:38;;;;;;;4.07;1.60;;;15.70;99.90;;;;;;10057338;28;20238;-64
2023/03/22 09:41:37;;;;;;;2.10;1.20;;;16.00;99.90;;;;;;10061908;28;20222;-65
2023/03/22 09:46:43;;;;;;;2.78;1.20;;;16.20;99.90;;;;;;10057720;28;20499;-62
2023/03/22 09:51:40;;;;;;;2.17;1.13;;;16.30;99.90;;;;;;10056455;28;20050;-62
2023/03/22 09:56:31;;;;;;;1.63;1.00;;;16.50;99.90;;;;;;10058395;28;20500;-63
2023/03/22 10:01:25;;;;;;;2.97;1.17;;;16.60;99.80;;;;;;10057975;28;20531;-62
2023/03/22 10:06:25;;;;;;;2.97;1.48;;;16.80;99.70;;;;;;10059265;28;20056;-63
2023/03/22 10:11:36;;;;;;;1.50;1.10;;;17.00;99.60;;;;;;10056954;28;20034;-64
2023/03/22 10:16:31;;;;;;;1.63;1.20;;;17.00;99.50;;;;;;10054833;28;20125;-60
2023/03/22 10:21:23;;;;;;;2.53;1.17;;;17.00;99.40;;;;;;10057933;28;20101;-63
2023/03/22 10:26:30;;;;;;;3.95;1.67;;;17.30;99.20;;;;;;10057184;28;20181;-62
2023/03/22 10:31:21;;;;;;;1.77;1.00;;;17.40;98.70;;;;;;10058410;28;20327;-62
2023/03/22 10:36:13;;;;;;;4.60;1.08;;;17.60;98.80;;;;;;10058650;28;20037;-61
2023/03/22 10:41:05;;;;;;;1.50;0.95;;;17.80;98.60;;;;;;10059352;28;20017;-61
2023/03/22 10:45:57;;;;;;;1.13;0.93;;;17.80;98.60;;;;;;10060553;28;20104;-62
2023/03/22 10:50:48;;;;;;;1.70;1.42;;;17.60;98.60;;;;;;10056852;28;20064;-63
2023/03/22 10:55:40;;;;;;;1.05;0.90;;;17.50;98.40;;;;;;10057162;28;20037;-62
2023/03/22 11:00:31;;;;;;;2.67;1.10;;;17.50;98.30;;;;;;10056079;28;20085;-60
2023/03/22 11:05:27;;;;;;;1.30;1.00;;;17.60;98.10;;;;;;10057419;28;20341;-59
2023/03/22 11:10:31;;;;;;;2.67;1.00;;;17.60;97.80;;;;;;10056854;28;20030;-61
2023/03/22 11:15:30;;;;;;;4.07;1.90;;;17.70;97.50;;;;;;10056449;28;20029;-60
2023/03/22 11:20:21;;;;;;;2.50;1.02;;;17.90;97.20;;;;;;10056613;28;20033;-61
2023/03/22 11:25:17;;;;;;;1.98;1.13;;;18.10;97.00;;;;;;10056114;28;20022;-61
2023/03/22 11:30:25;;;;;;;2.70;1.08;;;18.10;96.50;;;;;;10062028;28;20052;-64
2023/03/22 11:35:21;;;;;;;1.67;1.00;;;18.50;96.20;;;;;;10063770;28;20041;-61
2023/03/22 11:40:16;;;;;;;3.47;1.48;;;18.70;95.90;;;;;;10067843;28;20104;-59
2023/03/22 11:45:12;;;;;;;3.78;1.40;;;19.00;95.70;;;;;;10057212;28;20044;-60
2023/03/22 11:50:06;;;;;;;1.42;0.90;;;19.30;95.60;;;;;;10086766;28;20068;-61
2023/03/22 11:54:59;;;;;;;1.38;0.88;;;19.20;95.60;;;;;;10076601;28;20048;-59
2023/03/22 11:59:59;;;;;;;2.13;0.80;;;19.20;95.20;;;;;;10068350;28;20060;-59
2023/03/22 12:04:56;;;;;;;2.35;0.98;;;19.10;94.90;;;;;;10077955;28;20060;-60
2023/03/22 12:10:10;;;;;;;3.13;1.63;;;19.20;94.60;;;;;;10075363;28;20053;-61
2023/03/22 12:15:19;;;;;;;1.63;1.02;;;19.60;94.30;;;;;;10073053;28;20036;-61
2023/03/22 12:20:51;;;;;;;2.30;0.90;;;19.70;94.10;;;;;;10085045;28;20037;-60
2023/03/22 12:26:08;;;;;;;3.55;0.82;;;20.10;93.30;;;;;;10068808;28;20464;-60
2023/03/22 12:31:02;;;;;;;1.52;0.93;;;20.30;93.30;;;;;;10071110;28;20117;-60
2023/03/22 12:36:04;;;;;;;2.78;1.30;;;20.40;93.20;;;;;;10086125;28;20045;-62
2023/03/22 12:41:03;;;;;;;0.93;0.77;;;20.80;92.80;;;;;;10068576;28;20101;-61
2023/03/22 12:45:59;;;;;;;2.00;0.75;;;21.00;92.00;;;;;;10062409;28;20029;-63
2023/03/22 12:51:00;;;;;;;0.57;0.57;;;21.30;91.60;;;;;;10063534;28;20098;-55
2023/03/22 12:55:51;;;;;;;0.80;0.70;;;21.70;90.70;;;;;;10054329;28;20052;-58
2023/03/22 13:00:50;;;;;;;1.27;0.80;;;21.90;90.50;;;;;;10070773;28;20076;-58
2023/03/22 13:05:41;;;;;;;3.08;1.20;;;21.80;88.80;;;;;;10062394;28;20029;-60
2023/03/22 13:10:32;;;;;;;0.90;0.80;;;21.40;89.00;;;;;;10071079;28;20086;-60
2023/03/22 13:15:33;;;;;;;1.45;0.90;;;21.70;88.00;;;;;;10085654;28;20492;-55
2023/03/22 13:20:26;;;;;;;1.70;0.80;;;21.80;86.30;;;;;;10076841;28;20072;-59
2023/03/22 13:25:22;;;;;;;0.60;0.57;;;22.00;84.80;;;;;;10051710;28;20026;-58
2023/03/22 13:30:19;;;;;;;1.35;0.95;;;22.80;84.40;;;;;;10057579;28;20067;-60
2023/03/22 13:35:27;;;;;;;1.30;0.80;;;23.30;82.20;;;;;;10063914;28;20029;-60
2023/03/22 13:40:38;;;;;;;0.98;0.70;;;23.40;79.00;;;;;;10057831;28;20021;-61
2023/03/22 13:45:32;;;;;;;1.05;0.60;;;22.90;78.60;;;;;;10077177;28;20052;-59
2023/03/22 13:50:28;;;;;;;3.45;1.13;;;23.30;77.80;;;;;;10056352;28;20049;-61
2023/03/22 13:55:40;;;;;;;1.42;0.82;;;23.20;77.10;;;;;;10059609;28;20049;-59
2023/03/22 14:00:30;;;;;;;1.45;1.00;;;23.00;74.60;;;;;;10058064;28;20014;-59
2023/03/22 14:05:23;;;;;;;1.77;0.90;;;23.20;75.80;;;;;;10063074;28;20035;-59
2023/03/22 14:10:22;;;;;;;1.00;0.80;;;23.70;75.80;;;;;;10072263;28;20049;-60
2023/03/22 14:15:22;;;;;;;2.85;0.73;;;22.80;74.30;;;;;;10044119;28;20103;-57
2023/03/22 14:20:18;;;;;;;1.17;0.80;;;23.10;73.40;;;;;;10054178;28;20387;-60
2023/03/22 14:25:17;;;;;;;1.45;0.70;;;23.60;72.60;;;;;;10056153;28;20021;-58
2023/03/22 14:30:19;;;;;;;1.48;0.63;;;24.10;70.90;;;;;;10058424;28;20025;-59
2023/03/22 14:35:20;;;;;;;1.77;0.90;;;24.00;69.10;;;;;;10056883;28;20040;-60
2023/03/22 14:40:17;;;;;;;1.02;0.70;;;24.60;69.10;;;;;;10060578;28;20021;-59
2023/03/22 14:45:17;;;;;;;3.47;0.93;;;25.30;67.00;;;;;;10061328;28;20028;-56
2023/03/22 14:50:16;;;;;;;2.08;0.93;;;25.90;64.80;;;;;;10073584;28;20057;-57
2023/03/22 14:55:14;;;;;;;1.25;0.85;;;26.60;63.80;;;;;;10068339;28;20044;-58
2023/03/22 15:00:15;;;;;;;2.85;0.77;;;28.30;62.30;;;;;;10059328;28;20499;-58
2023/03/22 15:05:17;;;;;;;1.42;0.77;;;28.40;60.30;;;;;;10068454;28;20472;-58
2023/03/22 15:10:17;;;;;;;1.88;1.08;;;28.30;57.90;;;;;;10067806;28;20029;-58
2023/03/22 15:15:09;;;;;;;1.15;0.70;;;29.10;56.60;;;;;;10062260;28;20116;-57
2023/03/22 15:19:59;;;;;;;1.55;0.80;;;29.00;56.30;;;;;;10064796;28;20021;-57
2023/03/22 15:24:53;;;;;;;0.82;0.75;;;29.40;55.60;;;;;;10090957;28;20055;-58
2023/03/22 15:29:44;;;;;;;1.23;0.88;;;29.20;54.70;;;;;;10101208;28;20379;-59
2023/03/22 15:34:37;;;;;;;0.77;0.63;;;28.70;54.10;;;;;;10102141;28;20063;-59
2023/03/22 15:39:40;;;;;;;1.13;0.80;;;28.00;53.80;;;;;;10084868;28;20154;-59
2023/03/22 15:44:35;;;;;;;2.05;0.70;;;27.30;52.80;;;;;;10091977;28;20386;-58
2023/03/22 15:49:31;;;;;;;1.67;1.50;;;26.50;53.60;;;;;;10087504;28;20090;-58
2023/03/22 15:54:29;;;;;;;0.80;0.77;;;26.60;53.70;;;;;;10080393;28;20068;-58
2023/03/22 15:59:29;;;;;;;2.42;1.10;;;26.20;53.70;;;;;;10069515;28;20033;-60
2023/03/22 16:04:24;;;;;;;1.67;0.85;;;25.40;54.10;;;;;;10063831;28;20191;-58
2023/03/22 16:09:16;;;;;;;0.93;0.85;;;24.60;55.00;;;;;;10064943;28;20029;-60
2023/03/22 16:14:10;;;;;;;1.58;0.88;;;23.80;55.40;;;;;;10059866;28;20037;-60
2023/03/22 16:19:00;;;;;;;2.20;0.75;;;22.80;56.40;;;;;;10063447;28;20365;-57
2023/03/22 16:23:51;;;;;;;1.08;0.80;;;22.10;57.20;;;;;;10064259;28;20021;-59
2023/03/22 16:28:43;;;;;;;2.55;0.90;;;21.70;57.80;;;;;;10064226;28;20064;-56
2023/03/22 16:33:34;;;;;;;1.70;1.13;;;21.20;58.50;;;;;;10063272;28;20034;-58
2023/03/22 16:38:26;;;;;;;2.13;0.70;;;20.80;59.30;;;;;;10054305;28;20403;-58
2023/03/22 16:43:18;;;;;;;1.98;1.08;;;20.60;59.60;;;;;;10064293;28;20094;-56
2023/03/22 16:48:10;;;;;;;2.20;1.10;;;20.50;60.00;;;;;;10055077;28;20017;-55
2023/03/22 16:53:01;;;;;;;1.00;0.80;;;20.40;60.40;;;;;;10054373;28;20054;-55
2023/03/22 16:57:52;;;;;;;1.30;0.90;;;20.30;60.80;;;;;;10060423;28;20033;-58
2023/03/22 17:02:44;;;;;;;1.60;0.85;;;20.10;61.10;;;;;;10051670;28;20029;-59
2023/03/22 17:07:35;;;;;;;1.85;1.00;;;20.00;61.40;;;;;;10051118;28;20141;-62
2023/03/22 17:12:28;;;;;;;2.25;1.08;;;19.90;61.80;;;;;;10060507;28;20034;-58
2023/03/22 17:17:19;;;;;;;3.10;1.52;;;19.80;61.90;;;;;;10076220;28;20040;-58
2023/03/22 17:22:11;;;;;;;2.03;1.05;;;19.60;62.30;;;;;;10059934;28;20039;-58
2023/03/22 17:27:03;;;;;;;2.47;1.70;;;19.60;62.50;;;;;;10060224;28;20025;-59
2023/03/22 17:31:54;;;;;;;2.60;1.50;;;19.40;62.90;;;;;;10076997;28;20021;-60
2023/03/22 17:36:44;;;;;;;2.22;1.40;;;19.30;63.30;;;;;;10076746;28;20431;-60
2023/03/22 17:41:35;;;;;;;1.40;1.10;;;19.30;64.30;;;;;;10078448;28;20028;-61
2023/03/22 17:46:28;;;;;;;2.00;1.10;;;19.20;63.90;;;;;;10067545;28;20044;-61
2023/03/22 17:51:18;;;;;;;2.17;1.30;;;19.10;64.10;;;;;;10060037;28;20099;-61
2023/03/22 17:56:09;;;;;;;2.80;1.80;;;19.10;64.50;;;;;;10073145;28;20087;-62
2023/03/22 18:01:01;;;;;;;2.15;1.42;;;19.00;64.60;;;;;;10075466;28;20105;-61
2023/03/22 18:05:51;;;;;;;2.58;1.73;;;19.10;64.80;;;;;;10065617;28;20120;-64
2023/03/22 18:10:43;;;;;;;3.95;1.60;;;19.10;65.00;;;;;;10081455;28;20071;-63
2023/03/22 18:15:34;;;;;;;1.92;1.30;;;19.10;65.20;;;;;;10057558;28;20499;-61
2023/03/22 18:20:25;;;;;;;2.65;1.70;;;19.00;65.50;;;;;;10073854;28;20029;-59
2023/03/22 18:25:18;;;;;;;5.53;1.90;;;19.00;65.80;;;;;;10078990;28;20042;-59
2023/03/22 18:30:10;;;;;;;3.80;2.08;;;18.90;66.00;;;;;;10061261;28;20060;-65
2023/03/22 18:35:01;;;;;;;2.42;1.70;;;19.00;66.10;;;;;;10058975;28;20021;-58
2023/03/22 18:39:52;;;;;;;5.30;2.40;;;18.90;66.30;;;;;;10069069;28;20033;-59
2023/03/22 18:44:42;;;;;;;3.40;1.65;;;18.80;66.60;;;;;;10095268;28;20072;-58
2023/03/22 18:49:33;;;;;;;3.08;1.75;;;18.70;67.00;;;;;;10070565;28;20428;-60
2023/03/22 18:54:24;;;;;;;4.35;2.22;;;18.60;67.30;;;;;;10076870;28;20511;-57
2023/03/22 18:59:15;;;;;;;1.90;1.42;;;18.60;67.70;;;;;;10076728;28;20049;-60
2023/03/22 19:04:06;;;;;;;4.68;2.00;;;18.50;68.00;;;;;;10063249;28;20040;-59
2023/03/22 19:08:57;;;;;;;2.50;1.42;;;18.40;68.20;;;;;;10069567;28;20499;-61
2023/03/22 19:13:47;;;;;;;2.40;1.45;;;18.40;68.50;;;;;;10031633;28;20034;-63
2023/03/22 19:18:38;;;;;;;1.83;1.33;;;18.40;68.70;;;;;;10073200;28;20480;-61
2023/03/22 19:23:30;;;;;;;3.20;1.58;;;18.40;68.70;;;;;;10077279;28;20029;-62
2023/03/22 19:28:21;;;;;;;3.72;2.25;;;18.40;68.80;;;;;;10073813;28;20026;-60
2023/03/22 19:33:12;;;;;;;2.28;1.60;;;18.40;69.00;;;;;;10065452;28;20307;-61
2023/03/22 19:38:03;;;;;;;3.65;1.75;;;18.40;69.10;;;;;;10074055;28;20036;-62
2023/03/22 19:42:54;;;;;;;2.42;1.45;;;18.50;69.20;;;;;;10065973;28;20132;-59
2023/03/22 19:47:45;;;;;;;2.47;1.83;;;18.50;69.30;;;;;;10074987;28;20116;-59
2023/03/22 19:52:37;;;;;;;2.88;1.60;;;18.40;69.30;;;;;;10060439;28;20041;-62
2023/03/22 19:57:28;;;;;;;2.88;1.30;;;18.40;69.40;;;;;;10072108;28;20433;-61
2023/03/22 20:02:19;;;;;;;2.67;1.50;;;18.30;69.60;;;;;;10061637;28;20026;-65
2023/03/22 20:07:10;;;;;;;2.20;1.45;;;18.30;69.70;;;;;;10063203;28;20492;-65
2023/03/22 20:12:01;;;;;;;2.53;1.30;;;18.30;69.80;;;;;;10057614;28;20033;-63
2023/03/22 20:16:51;;;;;;;2.13;1.17;;;18.30;69.80;;;;;;10062846;28;20037;-63
2023/03/22 20:21:42;;;;;;;3.70;2.50;;;18.30;69.90;;;;;;10061383;28;20021;-63
2023/03/22 20:26:33;;;;;;;2.55;1.40;;;18.30;70.00;;;;;;10063939;28;20033;-62
2023/03/22 20:31:24;;;;;;;2.25;1.20;;;18.20;70.00;;;;;;10061934;28;20021;-62
2023/03/22 20:36:15;;;;;;;2.10;1.20;;;18.20;70.80;;;;;;10064517;28;20045;-65
2023/03/22 20:41:13;;;;;;;1.05;0.77;;;18.20;70.30;;;;;;10062757;28;20017;-63
2023/03/22 20:46:04;;;;;;;1.63;1.33;;;18.20;70.20;;;;;;10064449;28;20103;-61
2023/03/22 20:50:55;;;;;;;1.05;0.88;;;18.20;70.20;;;;;;10075272;28;20175;-62
2023/03/22 20:55:53;;;;;;;2.20;0.95;;;18.10;70.80;;;;;;10079344;28;20531;-61
2023/03/22 21:00:44;;;;;;;0.80;0.45;;;17.90;71.50;;;;;;10084373;28;20120;-62
2023/03/22 21:05:36;;;;;;;0.93;0.70;;;17.80;72.40;;;;;;10051105;28;20105;-61
2023/03/22 21:10:26;;;;;;;1.58;0.73;;;17.70;72.70;;;;;;10057308;28;20081;-60
2023/03/22 21:15:18;;;;;;;1.15;0.68;;;17.70;72.80;;;;;;10057740;28;20129;-63
2023/03/22 21:20:10;;;;;;;2.20;0.80;;;17.70;73.00;;;;;;10056812;28;20025;-62
2023/03/22 21:25:01;;;;;;;1.27;0.75;;;17.50;73.20;;;;;;10060117;28;20025;-61
2023/03/22 21:29:52;;;;;;;1.27;0.95;;;17.40;73.80;;;;;;10062468;28;20044;-62
2023/03/22 21:34:43;;;;;;;0.75;0.60;;;17.50;73.90;;;;;;10059931;28;20036;-64
2023/03/22 21:39:34;;;;;;;1.10;0.90;;;17.50;74.00;;;;;;10076522;28;20036;-64
2023/03/22 21:44:25;;;;;;;0.98;0.65;;;17.50;74.30;;;;;;10081209;28;20037;-62
2023/03/22 21:49:24;;;;;;;1.90;0.95;;;17.40;74.70;;;;;;10076834;28;20029;-65
2023/03/22 21:54:17;;;;;;;1.13;0.65;;;17.50;74.70;;;;;;10087537;28;20044;-64
2023/03/22 21:59:11;;;;;;;1.33;0.90;;;17.50;74.90;;;;;;10097457;28;20045;-65
2023/03/22 22:04:02;;;;;;;3.08;1.40;;;17.50;75.30;;;;;;10077834;28;20033;-63
2023/03/22 22:08:53;;;;;;;4.05;1.40;;;17.40;75.80;;;;;;10098337;28;20024;-62
2023/03/22 22:13:44;;;;;;;2.20;1.20;;;17.40;76.20;;;;;;10069872;28;20034;-62
2023/03/22 22:18:35;;;;;;;2.38;1.02;;;17.40;76.60;;;;;;10087004;28;20029;-63
2023/03/22 22:23:33;;;;;;;3.95;2.10;;;17.40;77.20;;;;;;10097922;28;20219;-64
2023/03/22 22:28:25;;;;;;;4.15;1.63;;;17.30;77.70;;;;;;10063045;22;20058;-62
2023/03/22 22:33:15;;;;;;;4.05;1.90;;;17.30;78.30;;;;;;10062536;28;20518;-59
2023/03/22 22:38:06;;;;;;;4.00;2.33;;;17.20;78.90;;;;;;10056594;28;20025;-61
2023/03/22 22:42:57;;;;;;;2.72;1.50;;;17.20;79.30;;;;;;10063230;28;20095;-60
2023/03/22 22:47:48;;;;;;;2.25;1.48;;;17.10;79.70;;;;;;10057209;28;20034;-59
2023/03/22 22:52:39;;;;;;;2.15;1.30;;;17.10;80.20;;;;;;10057938;28;20071;-63
2023/03/22 22:57:29;;;;;;;3.60;1.27;;;17.00;80.60;;;;;;10057419;28;20336;-62
2023/03/22 23:02:20;;;;;;;2.55;1.10;;;16.90;80.80;;;;;;10055315;28;20503;-61
2023/03/22 23:07:11;;;;;;;1.52;1.00;;;16.90;80.90;;;;;;10070400;28;20025;-62
2023/03/22 23:12:02;;;;;;;1.48;0.93;;;17.00;81.00;;;;;;10057059;28;20442;-64
2023/03/22 23:16:55;;;;;;;3.53;1.08;;;17.00;81.00;;;;;;10070327;28;20048;-62
2023/03/22 23:21:46;;;;;;;2.45;1.20;;;17.10;80.90;;;;;;10061535;28;20558;-61
2023/03/22 23:26:39;;;;;;;2.45;1.25;;;17.10;81.10;;;;;;10075802;28;20177;-61
2023/03/22 23:31:31;;;;;;;2.28;1.10;;;17.00;81.50;;;;;;10063377;28;20030;-63
2023/03/22 23:36:25;;;;;;;2.70;1.10;;;16.90;81.70;;;;;;10067562;28;20491;-64
2023/03/22 23:41:18;;;;;;;1.52;0.93;;;16.80;81.90;;;;;;10071542;28;20112;-63
2023/03/22 23:46:09;;;;;;;1.10;0.70;;;16.70;82.30;;;;;;10063711;28;20135;-65
2023/03/22 23:51:01;;;;;;;1.45;0.95;;;16.70;82.60;;;;;;10064143;28;20021;-62
2023/03/22 23:55:52;;;;;;;1.52;0.85;;;16.70;82.60;;;;;;10073725;28;20036;-63
